sensor_id;sensor_type;location;lat;lon;timestamp;P1;durP1;ratioP1;P2;durP2;ratioP2
74658;SDS011;63186;51.204;6.536;2023-02-28T00:00:07;11.23;;;6.18;;
74658;SDS011;63186;51.204;6.536;2023-02-28T00:02:35;12.82;;;6.28;;
74658;SDS011;63186;51.204;6.536;2023-02-28T00:05:01;12.80;;;7.05;;
74658;SDS011;63186;51.204;6.536;2023-02-28T00:07:28;12.95;;;6.53;;
74658;SDS011;63186;51.204;6.536;2023-02-28T00:09:54;10.35;;;6.28;;
74658;SDS011;63186;51.204;6.536;2023-02-28T00:12:19;9.40;;;6.00;;
74658;SDS011;63186;51.204;6.536;2023-02-28T00:14:45;11.50;;;6.88;;
74658;SDS011;63186;51.204;6.536;2023-02-28T00:17:10;14.67;;;6.90;;
74658;SDS011;63186;51.204;6.536;2023-02-28T00:19:35;13.57;;;6.10;;
74658;SDS011;63186;51.204;6.536;2023-02-28T00:22:00;11.27;;;6.43;;
74658;SDS011;63186;51.204;6.536;2023-02-28T00:24:26;10.90;;;6.40;;
74658;SDS011;63186;51.204;6.536;2023-02-28T00:26:51;9.67;;;5.93;;
74658;SDS011;63186;51.204;6.536;2023-02-28T00:29:16;10.63;;;5.50;;
74658;SDS011;63186;51.204;6.536;2023-02-28T00:31:42;11.43;;;6.53;;
74658;SDS011;63186;51.204;6.536;2023-02-28T00:34:07;13.50;;;6.60;;
74658;SDS011;63186;51.204;6.536;2023-02-28T00:36:32;11.57;;;7.53;;
74658;SDS011;63186;51.204;6.536;2023-02-28T00:38:57;12.37;;;6.83;;
74658;SDS011;63186;51.204;6.536;2023-02-28T00:41:23;10.20;;;5.97;;
74658;SDS011;63186;51.204;6.536;2023-02-28T00:43:48;11.93;;;6.47;;
74658;SDS011;63186;51.204;6.536;2023-02-28T00:46:13;10.83;;;6.03;;
74658;SDS011;63186;51.204;6.536;2023-02-28T00:48:38;11.93;;;6.20;;
74658;SDS011;63186;51.204;6.536;2023-02-28T00:51:04;12.63;;;6.27;;
74658;SDS011;63186;51.204;6.536;2023-02-28T00:53:29;12.52;;;6.40;;
74658;SDS011;63186;51.204;6.536;2023-02-28T00:55:55;12.63;;;6.47;;
74658;SDS011;63186;51.204;6.536;2023-02-28T00:58:20;11.10;;;6.60;;
74658;SDS011;63186;51.204;6.536;2023-02-28T01:00:46;14.63;;;7.72;;
74658;SDS011;63186;51.204;6.536;2023-02-28T01:03:14;9.70;;;5.75;;
74658;SDS011;63186;51.204;6.536;2023-02-28T01:05:41;10.52;;;6.25;;
74658;SDS011;63186;51.204;6.536;2023-02-28T01:08:06;9.85;;;6.05;;
74658;SDS011;63186;51.204;6.536;2023-02-28T01:10:32;12.33;;;6.20;;
74658;SDS011;63186;51.204;6.536;2023-02-28T01:12:57;10.75;;;7.40;;
74658;SDS011;63186;51.204;6.536;2023-02-28T01:15:23;13.73;;;5.95;;
74658;SDS011;63186;51.204;6.536;2023-02-28T01:17:48;12.57;;;6.82;;
74658;SDS011;63186;51.204;6.536;2023-02-28T01:20:13;13.80;;;5.73;;
74658;SDS011;63186;51.204;6.536;2023-02-28T01:22:39;12.05;;;6.60;;
74658;SDS011;63186;51.204;6.536;2023-02-28T01:25:04;9.47;;;6.00;;
74658;SDS011;63186;51.204;6.536;2023-02-28T01:27:29;13.77;;;5.78;;
74658;SDS011;63186;51.204;6.536;2023-02-28T01:29:55;12.07;;;5.93;;
74658;SDS011;63186;51.204;6.536;2023-02-28T01:32:20;10.90;;;6.47;;
74658;SDS011;63186;51.204;6.536;2023-02-28T01:34:46;10.70;;;6.82;;
74658;SDS011;63186;51.204;6.536;2023-02-28T01:37:11;10.23;;;7.10;;
74658;SDS011;63186;51.204;6.536;2023-02-28T01:39:36;10.83;;;6.13;;
74658;SDS011;63186;51.204;6.536;2023-02-28T01:42:01;10.80;;;6.23;;
74658;SDS011;63186;51.204;6.536;2023-02-28T01:47:35;10.82;;;5.95;;
74658;SDS011;63186;51.204;6.536;2023-02-28T01:50:06;13.70;;;7.22;;
74658;SDS011;63186;51.204;6.536;2023-02-28T01:52:37;10.50;;;5.75;;
74658;SDS011;63186;51.204;6.536;2023-02-28T01:55:04;10.70;;;6.40;;
74658;SDS011;63186;51.204;6.536;2023-02-28T01:57:35;15.13;;;6.40;;
74658;SDS011;63186;51.204;6.536;2023-02-28T02:00:05;9.63;;;5.55;;
74658;SDS011;63186;51.204;6.536;2023-02-28T02:02:34;10.00;;;6.18;;
74658;SDS011;63186;51.204;6.536;2023-02-28T02:05:04;9.55;;;6.38;;
74658;SDS011;63186;51.204;6.536;2023-02-28T02:07:33;9.25;;;6.25;;
74658;SDS011;63186;51.204;6.536;2023-02-28T02:10:11;12.15;;;6.72;;
74658;SDS011;63186;51.204;6.536;2023-02-28T02:15:44;13.13;;;7.00;;
74658;SDS011;63186;51.204;6.536;2023-02-28T02:20:46;11.60;;;6.05;;
74658;SDS011;63186;51.204;6.536;2023-02-28T02:23:33;10.10;;;6.40;;
74658;SDS011;63186;51.204;6.536;2023-02-28T02:26:19;10.85;;;5.45;;
74658;SDS011;63186;51.204;6.536;2023-02-28T02:37:57;11.32;;;6.43;;
74658;SDS011;63186;51.204;6.536;2023-02-28T02:40:33;9.60;;;6.05;;
74658;SDS011;63186;51.204;6.536;2023-02-28T02:45:32;11.02;;;6.68;;
74658;SDS011;63186;51.204;6.536;2023-02-28T02:48:03;10.40;;;5.63;;
74658;SDS011;63186;51.204;6.536;2023-02-28T02:50:34;10.50;;;6.20;;
74658;SDS011;63186;51.204;6.536;2023-02-28T02:53:03;9.05;;;5.32;;
74658;SDS011;63186;51.204;6.536;2023-02-28T02:55:32;9.07;;;5.70;;
74658;SDS011;63186;51.204;6.536;2023-02-28T02:58:03;9.93;;;5.35;;
74658;SDS011;63186;51.204;6.536;2023-02-28T03:00:34;10.63;;;5.93;;
74658;SDS011;63186;51.204;6.536;2023-02-28T03:03:04;11.57;;;5.38;;
74658;SDS011;63186;51.204;6.536;2023-02-28T03:08:09;11.15;;;5.78;;
74658;SDS011;63186;51.204;6.536;2023-02-28T03:10:41;10.27;;;6.10;;
74658;SDS011;63186;51.204;6.536;2023-02-28T03:18:32;9.00;;;5.07;;
74658;SDS011;63186;51.204;6.536;2023-02-28T03:21:10;10.30;;;6.18;;
74658;SDS011;63186;51.204;6.536;2023-02-28T03:23:48;13.18;;;6.03;;
74658;SDS011;63186;51.204;6.536;2023-02-28T03:26:22;8.77;;;5.53;;
74658;SDS011;63186;51.204;6.536;2023-02-28T03:31:55;10.85;;;6.20;;
74658;SDS011;63186;51.204;6.536;2023-02-28T03:34:29;9.48;;;5.90;;
74658;SDS011;63186;51.204;6.536;2023-02-28T03:37:02;10.43;;;5.40;;
74658;SDS011;63186;51.204;6.536;2023-02-28T03:39:40;10.07;;;5.63;;
74658;SDS011;63186;51.204;6.536;2023-02-28T03:42:11;10.23;;;5.95;;
74658;SDS011;63186;51.204;6.536;2023-02-28T03:50:01;11.15;;;6.40;;
74658;SDS011;63186;51.204;6.536;2023-02-28T03:52:33;9.68;;;6.18;;
74658;SDS011;63186;51.204;6.536;2023-02-28T03:55:06;13.05;;;5.18;;
74658;SDS011;63186;51.204;6.536;2023-02-28T03:57:51;11.70;;;5.90;;
74658;SDS011;63186;51.204;6.536;2023-02-28T04:00:34;13.55;;;7.38;;
74658;SDS011;63186;51.204;6.536;2023-02-28T04:03:03;10.07;;;5.88;;
74658;SDS011;63186;51.204;6.536;2023-02-28T04:05:28;10.35;;;6.10;;
74658;SDS011;63186;51.204;6.536;2023-02-28T04:07:54;11.32;;;6.22;;
74658;SDS011;63186;51.204;6.536;2023-02-28T04:10:29;12.20;;;6.20;;
74658;SDS011;63186;51.204;6.536;2023-02-28T04:12:54;10.77;;;6.65;;
74658;SDS011;63186;51.204;6.536;2023-02-28T04:15:19;9.70;;;5.40;;
74658;SDS011;63186;51.204;6.536;2023-02-28T04:17:47;9.90;;;5.70;;
74658;SDS011;63186;51.204;6.536;2023-02-28T04:20:13;8.37;;;4.43;;
74658;SDS011;63186;51.204;6.536;2023-02-28T04:22:38;12.13;;;5.33;;
74658;SDS011;63186;51.204;6.536;2023-02-28T04:25:03;8.07;;;4.23;;
74658;SDS011;63186;51.204;6.536;2023-02-28T04:27:30;9.35;;;4.55;;
74658;SDS011;63186;51.204;6.536;2023-02-28T04:29:55;7.90;;;4.47;;
74658;SDS011;63186;51.204;6.536;2023-02-28T04:32:21;10.90;;;4.90;;
74658;SDS011;63186;51.204;6.536;2023-02-28T04:34:46;8.40;;;4.28;;
74658;SDS011;63186;51.204;6.536;2023-02-28T04:37:11;9.17;;;5.03;;
74658;SDS011;63186;51.204;6.536;2023-02-28T04:39:37;8.48;;;4.78;;
74658;SDS011;63186;51.204;6.536;2023-02-28T04:42:03;8.48;;;4.90;;
74658;SDS011;63186;51.204;6.536;2023-02-28T04:44:28;9.05;;;5.05;;
74658;SDS011;63186;51.204;6.536;2023-02-28T04:46:54;9.00;;;5.23;;
74658;SDS011;63186;51.204;6.536;2023-02-28T04:49:19;8.10;;;4.60;;
74658;SDS011;63186;51.204;6.536;2023-02-28T04:51:44;7.53;;;4.10;;
74658;SDS011;63186;51.204;6.536;2023-02-28T04:54:09;7.27;;;4.30;;
74658;SDS011;63186;51.204;6.536;2023-02-28T04:56:35;8.82;;;4.88;;
74658;SDS011;63186;51.204;6.536;2023-02-28T04:59:00;9.38;;;4.43;;
74658;SDS011;63186;51.204;6.536;2023-02-28T05:01:29;7.77;;;4.40;;
74658;SDS011;63186;51.204;6.536;2023-02-28T05:03:57;9.00;;;4.50;;
74658;SDS011;63186;51.204;6.536;2023-02-28T05:06:25;7.22;;;3.40;;
74658;SDS011;63186;51.204;6.536;2023-02-28T05:08:51;8.30;;;3.72;;
74658;SDS011;63186;51.204;6.536;2023-02-28T05:11:22;9.07;;;5.20;;
74658;SDS011;63186;51.204;6.536;2023-02-28T05:13:51;9.00;;;4.80;;
74658;SDS011;63186;51.204;6.536;2023-02-28T05:16:17;8.13;;;4.35;;
74658;SDS011;63186;51.204;6.536;2023-02-28T05:18:43;9.20;;;4.53;;
74658;SDS011;63186;51.204;6.536;2023-02-28T05:21:53;7.13;;;3.70;;
74658;SDS011;63186;51.204;6.536;2023-02-28T05:24:03;7.90;;;4.03;;
74658;SDS011;63186;51.204;6.536;2023-02-28T05:26:31;9.88;;;4.43;;
74658;SDS011;63186;51.204;6.536;2023-02-28T05:29:00;9.20;;;5.20;;
74658;SDS011;63186;51.204;6.536;2023-02-28T05:31:25;8.90;;;5.07;;
74658;SDS011;63186;51.204;6.536;2023-02-28T05:33:50;8.17;;;4.57;;
74658;SDS011;63186;51.204;6.536;2023-02-28T05:36:16;11.63;;;4.93;;
74658;SDS011;63186;51.204;6.536;2023-02-28T05:38:41;7.93;;;4.45;;
74658;SDS011;63186;51.204;6.536;2023-02-28T05:41:07;7.73;;;4.87;;
74658;SDS011;63186;51.204;6.536;2023-02-28T05:43:34;8.27;;;4.38;;
74658;SDS011;63186;51.204;6.536;2023-02-28T05:46:01;9.50;;;5.00;;
74658;SDS011;63186;51.204;6.536;2023-02-28T05:48:27;10.20;;;4.88;;
74658;SDS011;63186;51.204;6.536;2023-02-28T05:50:52;10.13;;;5.00;;
74658;SDS011;63186;51.204;6.536;2023-02-28T05:53:18;9.30;;;4.97;;
74658;SDS011;63186;51.204;6.536;2023-02-28T05:55:43;7.17;;;4.00;;
74658;SDS011;63186;51.204;6.536;2023-02-28T05:58:08;12.17;;;5.20;;
74658;SDS011;63186;51.204;6.536;2023-02-28T06:00:33;9.93;;;5.47;;
74658;SDS011;63186;51.204;6.536;2023-02-28T06:02:59;8.40;;;4.67;;
74658;SDS011;63186;51.204;6.536;2023-02-28T06:05:26;8.80;;;4.45;;
74658;SDS011;63186;51.204;6.536;2023-02-28T06:07:51;8.93;;;4.68;;
74658;SDS011;63186;51.204;6.536;2023-02-28T06:10:17;8.10;;;4.47;;
74658;SDS011;63186;51.204;6.536;2023-02-28T06:12:42;8.52;;;5.07;;
74658;SDS011;63186;51.204;6.536;2023-02-28T06:15:16;9.03;;;5.07;;
74658;SDS011;63186;51.204;6.536;2023-02-28T06:17:43;7.68;;;5.00;;
74658;SDS011;63186;51.204;6.536;2023-02-28T06:20:09;6.82;;;3.70;;
74658;SDS011;63186;51.204;6.536;2023-02-28T06:22:37;8.73;;;4.82;;
74658;SDS011;63186;51.204;6.536;2023-02-28T06:25:04;10.00;;;4.90;;
74658;SDS011;63186;51.204;6.536;2023-02-28T06:27:30;7.65;;;4.72;;
74658;SDS011;63186;51.204;6.536;2023-02-28T06:29:57;6.60;;;4.85;;
74658;SDS011;63186;51.204;6.536;2023-02-28T06:32:22;11.30;;;4.18;;
74658;SDS011;63186;51.204;6.536;2023-02-28T06:34:47;8.75;;;4.97;;
74658;SDS011;63186;51.204;6.536;2023-02-28T06:37:13;8.25;;;5.22;;
74658;SDS011;63186;51.204;6.536;2023-02-28T06:39:38;10.07;;;5.05;;
74658;SDS011;63186;51.204;6.536;2023-02-28T06:42:04;8.93;;;4.20;;
74658;SDS011;63186;51.204;6.536;2023-02-28T06:44:29;8.60;;;4.50;;
74658;SDS011;63186;51.204;6.536;2023-02-28T06:47:00;6.60;;;3.63;;
74658;SDS011;63186;51.204;6.536;2023-02-28T06:49:27;7.28;;;3.83;;
74658;SDS011;63186;51.204;6.536;2023-02-28T06:51:52;5.60;;;3.30;;
74658;SDS011;63186;51.204;6.536;2023-02-28T06:54:18;6.88;;;3.95;;
74658;SDS011;63186;51.204;6.536;2023-02-28T06:56:44;6.97;;;3.87;;
74658;SDS011;63186;51.204;6.536;2023-02-28T06:59:09;9.83;;;4.07;;
74658;SDS011;63186;51.204;6.536;2023-02-28T07:01:34;9.68;;;5.25;;
74658;SDS011;63186;51.204;6.536;2023-02-28T07:04:00;8.27;;;4.80;;
74658;SDS011;63186;51.204;6.536;2023-02-28T07:06:26;7.85;;;3.63;;
74658;SDS011;63186;51.204;6.536;2023-02-28T07:08:52;7.97;;;3.75;;
74658;SDS011;63186;51.204;6.536;2023-02-28T07:11:19;10.10;;;3.97;;
74658;SDS011;63186;51.204;6.536;2023-02-28T07:13:47;10.05;;;4.97;;
74658;SDS011;63186;51.204;6.536;2023-02-28T07:16:13;7.68;;;4.40;;
74658;SDS011;63186;51.204;6.536;2023-02-28T07:18:39;7.55;;;4.20;;
74658;SDS011;63186;51.204;6.536;2023-02-28T07:21:05;8.40;;;4.40;;
74658;SDS011;63186;51.204;6.536;2023-02-28T07:23:32;7.45;;;4.35;;
74658;SDS011;63186;51.204;6.536;2023-02-28T07:25:58;9.75;;;4.00;;
74658;SDS011;63186;51.204;6.536;2023-02-28T07:28:23;8.80;;;3.95;;
74658;SDS011;63186;51.204;6.536;2023-02-28T07:30:49;7.03;;;3.67;;
74658;SDS011;63186;51.204;6.536;2023-02-28T07:33:14;7.20;;;3.67;;
74658;SDS011;63186;51.204;6.536;2023-02-28T07:35:40;6.50;;;3.80;;
74658;SDS011;63186;51.204;6.536;2023-02-28T07:38:05;8.40;;;3.72;;
74658;SDS011;63186;51.204;6.536;2023-02-28T07:40:32;7.65;;;3.40;;
74658;SDS011;63186;51.204;6.536;2023-02-28T07:42:59;7.18;;;5.00;;
74658;SDS011;63186;51.204;6.536;2023-02-28T07:45:25;8.25;;;3.78;;
74658;SDS011;63186;51.204;6.536;2023-02-28T07:47:51;8.50;;;3.97;;
74658;SDS011;63186;51.204;6.536;2023-02-28T07:50:16;7.47;;;5.20;;
74658;SDS011;63186;51.204;6.536;2023-02-28T07:52:41;8.27;;;4.50;;
74658;SDS011;63186;51.204;6.536;2023-02-28T07:55:07;8.55;;;4.13;;
74658;SDS011;63186;51.204;6.536;2023-02-28T07:57:34;10.45;;;4.30;;
74658;SDS011;63186;51.204;6.536;2023-02-28T07:59:59;11.23;;;4.27;;
74658;SDS011;63186;51.204;6.536;2023-02-28T08:02:24;6.77;;;3.87;;
74658;SDS011;63186;51.204;6.536;2023-02-28T08:04:50;7.63;;;4.07;;
74658;SDS011;63186;51.204;6.536;2023-02-28T08:07:15;8.60;;;4.63;;
74658;SDS011;63186;51.204;6.536;2023-02-28T08:09:42;8.35;;;4.25;;
74658;SDS011;63186;51.204;6.536;2023-02-28T08:12:09;6.45;;;3.58;;
74658;SDS011;63186;51.204;6.536;2023-02-28T08:14:35;7.10;;;3.50;;
74658;SDS011;63186;51.204;6.536;2023-02-28T08:17:01;8.18;;;4.35;;
74658;SDS011;63186;51.204;6.536;2023-02-28T08:19:26;8.25;;;4.05;;
74658;SDS011;63186;51.204;6.536;2023-02-28T08:21:52;6.95;;;3.75;;
74658;SDS011;63186;51.204;6.536;2023-02-28T08:24:17;5.55;;;3.08;;
74658;SDS011;63186;51.204;6.536;2023-02-28T08:26:42;8.10;;;3.63;;
74658;SDS011;63186;51.204;6.536;2023-02-28T08:29:08;7.05;;;3.28;;
74658;SDS011;63186;51.204;6.536;2023-02-28T08:31:33;7.20;;;3.80;;
74658;SDS011;63186;51.204;6.536;2023-02-28T08:34:00;6.75;;;3.47;;
74658;SDS011;63186;51.204;6.536;2023-02-28T08:36:29;6.28;;;3.55;;
74658;SDS011;63186;51.204;6.536;2023-02-28T08:38:54;7.78;;;4.00;;
74658;SDS011;63186;51.204;6.536;2023-02-28T08:41:21;7.95;;;4.03;;
74658;SDS011;63186;51.204;6.536;2023-02-28T08:43:46;8.50;;;3.70;;
74658;SDS011;63186;51.204;6.536;2023-02-28T08:46:12;6.63;;;3.50;;
74658;SDS011;63186;51.204;6.536;2023-02-28T08:48:39;7.75;;;4.03;;
74658;SDS011;63186;51.204;6.536;2023-02-28T08:51:08;5.55;;;3.17;;
74658;SDS011;63186;51.204;6.536;2023-02-28T08:53:43;5.43;;;3.00;;
74658;SDS011;63186;51.204;6.536;2023-02-28T08:56:10;6.57;;;3.35;;
74658;SDS011;63186;51.204;6.536;2023-02-28T08:58:37;5.93;;;3.25;;
74658;SDS011;63186;51.204;6.536;2023-02-28T09:01:13;5.30;;;2.85;;
74658;SDS011;63186;51.204;6.536;2023-02-28T09:03:43;7.53;;;3.05;;
74658;SDS011;63186;51.204;6.536;2023-02-28T09:06:11;4.20;;;2.53;;
74658;SDS011;63186;51.204;6.536;2023-02-28T09:08:37;4.35;;;2.08;;
74658;SDS011;63186;51.204;6.536;2023-02-28T09:11:02;3.28;;;1.80;;
74658;SDS011;63186;51.204;6.536;2023-02-28T09:13:29;6.00;;;2.60;;
74658;SDS011;63186;51.204;6.536;2023-02-28T09:15:56;4.28;;;2.10;;
74658;SDS011;63186;51.204;6.536;2023-02-28T09:18:22;4.25;;;2.30;;
74658;SDS011;63186;51.204;6.536;2023-02-28T09:20:48;4.80;;;2.17;;
74658;SDS011;63186;51.204;6.536;2023-02-28T09:23:13;5.43;;;2.30;;
74658;SDS011;63186;51.204;6.536;2023-02-28T09:25:44;3.65;;;1.92;;
74658;SDS011;63186;51.204;6.536;2023-02-28T09:28:12;5.18;;;2.60;;
74658;SDS011;63186;51.204;6.536;2023-02-28T09:30:37;4.53;;;2.00;;
74658;SDS011;63186;51.204;6.536;2023-02-28T09:33:02;4.40;;;2.43;;
74658;SDS011;63186;51.204;6.536;2023-02-28T09:35:28;5.82;;;2.65;;
74658;SDS011;63186;51.204;6.536;2023-02-28T09:37:53;3.53;;;2.43;;
74658;SDS011;63186;51.204;6.536;2023-02-28T09:40:19;7.13;;;2.40;;
74658;SDS011;63186;51.204;6.536;2023-02-28T09:45:59;4.15;;;2.10;;
74658;SDS011;63186;51.204;6.536;2023-02-28T09:48:06;3.92;;;2.17;;
74658;SDS011;63186;51.204;6.536;2023-02-28T09:50:41;5.55;;;2.20;;
74658;SDS011;63186;51.204;6.536;2023-02-28T09:53:22;5.10;;;2.60;;
74658;SDS011;63186;51.204;6.536;2023-02-28T09:55:53;4.95;;;2.65;;
74658;SDS011;63186;51.204;6.536;2023-02-28T09:58:26;5.82;;;2.08;;
74658;SDS011;63186;51.204;6.536;2023-02-28T10:00:59;5.93;;;2.83;;
74658;SDS011;63186;51.204;6.536;2023-02-28T10:03:40;5.72;;;2.83;;
74658;SDS011;63186;51.204;6.536;2023-02-28T10:06:13;4.75;;;2.13;;
74658;SDS011;63186;51.204;6.536;2023-02-28T10:08:45;4.07;;;2.20;;
74658;SDS011;63186;51.204;6.536;2023-02-28T10:11:20;5.07;;;2.22;;
74658;SDS011;63186;51.204;6.536;2023-02-28T10:13:52;5.63;;;2.30;;
74658;SDS011;63186;51.204;6.536;2023-02-28T10:16:31;5.57;;;2.20;;
74658;SDS011;63186;51.204;6.536;2023-02-28T10:21:41;5.47;;;2.70;;
74658;SDS011;63186;51.204;6.536;2023-02-28T10:24:23;4.63;;;2.65;;
74658;SDS011;63186;51.204;6.536;2023-02-28T10:26:56;3.63;;;2.00;;
74658;SDS011;63186;51.204;6.536;2023-02-28T10:29:26;3.72;;;2.10;;
74658;SDS011;63186;51.204;6.536;2023-02-28T10:31:52;4.70;;;2.63;;
74658;SDS011;63186;51.204;6.536;2023-02-28T10:34:18;4.83;;;2.70;;
74658;SDS011;63186;51.204;6.536;2023-02-28T10:36:43;5.77;;;2.53;;
74658;SDS011;63186;51.204;6.536;2023-02-28T10:42:02;5.50;;;2.85;;
74658;SDS011;63186;51.204;6.536;2023-02-28T10:44:29;5.28;;;2.70;;
74658;SDS011;63186;51.204;6.536;2023-02-28T10:46:54;7.90;;;2.50;;
74658;SDS011;63186;51.204;6.536;2023-02-28T10:49:22;6.28;;;2.92;;
74658;SDS011;63186;51.204;6.536;2023-02-28T10:51:55;5.35;;;2.70;;
74658;SDS011;63186;51.204;6.536;2023-02-28T10:54:30;7.35;;;3.33;;
74658;SDS011;63186;51.204;6.536;2023-02-28T10:57:05;5.70;;;2.33;;
74658;SDS011;63186;51.204;6.536;2023-02-28T10:59:39;5.28;;;2.45;;
74658;SDS011;63186;51.204;6.536;2023-02-28T11:02:28;4.85;;;2.50;;
74658;SDS011;63186;51.204;6.536;2023-02-28T11:05:01;6.20;;;2.60;;
74658;SDS011;63186;51.204;6.536;2023-02-28T11:07:27;3.08;;;2.08;;
74658;SDS011;63186;51.204;6.536;2023-02-28T11:09:53;7.45;;;3.03;;
74658;SDS011;63186;51.204;6.536;2023-02-28T11:12:37;5.10;;;2.40;;
74658;SDS011;63186;51.204;6.536;2023-02-28T11:15:28;6.63;;;3.58;;
74658;SDS011;63186;51.204;6.536;2023-02-28T11:20:48;5.20;;;2.40;;
74658;SDS011;63186;51.204;6.536;2023-02-28T11:23:15;5.68;;;3.03;;
74658;SDS011;63186;51.204;6.536;2023-02-28T11:25:53;5.07;;;2.25;;
74658;SDS011;63186;51.204;6.536;2023-02-28T11:36:21;4.63;;;2.28;;
74658;SDS011;63186;51.204;6.536;2023-02-28T11:38:51;4.72;;;2.22;;
74658;SDS011;63186;51.204;6.536;2023-02-28T11:41:22;6.05;;;2.38;;
74658;SDS011;63186;51.204;6.536;2023-02-28T11:47:06;4.70;;;2.20;;
74658;SDS011;63186;51.204;6.536;2023-02-28T11:52:41;5.72;;;2.83;;
74658;SDS011;63186;51.204;6.536;2023-02-28T11:55:18;4.65;;;2.63;;
74658;SDS011;63186;51.204;6.536;2023-02-28T12:03:38;6.68;;;2.58;;
74658;SDS011;63186;51.204;6.536;2023-02-28T12:08:48;3.67;;;1.90;;
74658;SDS011;63186;51.204;6.536;2023-02-28T12:11:27;5.13;;;2.58;;
74658;SDS011;63186;51.204;6.536;2023-02-28T12:16:47;6.00;;;3.75;;
74658;SDS011;63186;51.204;6.536;2023-02-28T12:19:17;4.55;;;2.47;;
74658;SDS011;63186;51.204;6.536;2023-02-28T12:21:56;7.05;;;2.97;;
74658;SDS011;63186;51.204;6.536;2023-02-28T12:30:05;4.78;;;2.78;;
74658;SDS011;63186;51.204;6.536;2023-02-28T12:32:33;3.60;;;2.22;;
74658;SDS011;63186;51.204;6.536;2023-02-28T12:35:04;4.25;;;2.58;;
74658;SDS011;63186;51.204;6.536;2023-02-28T12:37:34;5.72;;;2.88;;
74658;SDS011;63186;51.204;6.536;2023-02-28T12:40:06;4.18;;;2.22;;
74658;SDS011;63186;51.204;6.536;2023-02-28T12:42:48;4.32;;;2.60;;
74658;SDS011;63186;51.204;6.536;2023-02-28T12:47:42;3.83;;;2.40;;
74658;SDS011;63186;51.204;6.536;2023-02-28T12:50:11;5.20;;;2.58;;
74658;SDS011;63186;51.204;6.536;2023-02-28T12:58:14;5.03;;;2.35;;
74658;SDS011;63186;51.204;6.536;2023-02-28T13:01:04;5.75;;;2.63;;
74658;SDS011;63186;51.204;6.536;2023-02-28T13:09:01;6.30;;;3.80;;
74658;SDS011;63186;51.204;6.536;2023-02-28T13:14:16;6.45;;;3.50;;
74658;SDS011;63186;51.204;6.536;2023-02-28T13:24:59;6.35;;;3.25;;
74658;SDS011;63186;51.204;6.536;2023-02-28T13:27:32;5.85;;;2.80;;
74658;SDS011;63186;51.204;6.536;2023-02-28T13:29:59;6.10;;;3.25;;
74658;SDS011;63186;51.204;6.536;2023-02-28T13:45:20;5.72;;;3.05;;
74658;SDS011;63186;51.204;6.536;2023-02-28T14:11:30;9.35;;;3.60;;
74658;SDS011;63186;51.204;6.536;2023-02-28T14:14:01;4.63;;;2.63;;
74658;SDS011;63186;51.204;6.536;2023-02-28T14:16:35;7.25;;;3.08;;
74658;SDS011;63186;51.204;6.536;2023-02-28T14:19:22;4.90;;;2.55;;
74658;SDS011;63186;51.204;6.536;2023-02-28T14:32:54;6.75;;;3.15;;
74658;SDS011;63186;51.204;6.536;2023-02-28T14:38:30;6.22;;;3.13;;
74658;SDS011;63186;51.204;6.536;2023-02-28T14:43:28;6.07;;;2.83;;
74658;SDS011;63186;51.204;6.536;2023-02-28T14:45:55;8.00;;;3.95;;
74658;SDS011;63186;51.204;6.536;2023-02-28T14:48:29;6.85;;;3.45;;
74658;SDS011;63186;51.204;6.536;2023-02-28T14:50:58;6.28;;;2.90;;
74658;SDS011;63186;51.204;6.536;2023-02-28T14:53:29;6.85;;;3.30;;
74658;SDS011;63186;51.204;6.536;2023-02-28T14:56:00;7.78;;;3.33;;
74658;SDS011;63186;51.204;6.536;2023-02-28T14:58:32;7.05;;;3.58;;
74658;SDS011;63186;51.204;6.536;2023-02-28T15:01:02;7.53;;;3.22;;
74658;SDS011;63186;51.204;6.536;2023-02-28T15:05:58;6.53;;;3.28;;
74658;SDS011;63186;51.204;6.536;2023-02-28T15:08:42;8.60;;;3.55;;
74658;SDS011;63186;51.204;6.536;2023-02-28T15:11:08;6.32;;;3.30;;
74658;SDS011;63186;51.204;6.536;2023-02-28T15:13:42;6.90;;;3.17;;
74658;SDS011;63186;51.204;6.536;2023-02-28T15:21:26;6.47;;;3.67;;
74658;SDS011;63186;51.204;6.536;2023-02-28T15:23:58;7.10;;;3.55;;
74658;SDS011;63186;51.204;6.536;2023-02-28T15:26:30;6.63;;;3.50;;
74658;SDS011;63186;51.204;6.536;2023-02-28T15:29:00;5.65;;;3.20;;
74658;SDS011;63186;51.204;6.536;2023-02-28T15:31:31;6.65;;;3.05;;
74658;SDS011;63186;51.204;6.536;2023-02-28T15:34:02;6.13;;;3.20;;
74658;SDS011;63186;51.204;6.536;2023-02-28T15:36:30;6.63;;;3.63;;
74658;SDS011;63186;51.204;6.536;2023-02-28T15:38:58;6.43;;;4.18;;
74658;SDS011;63186;51.204;6.536;2023-02-28T15:41:35;7.00;;;3.38;;
74658;SDS011;63186;51.204;6.536;2023-02-28T15:47:03;8.55;;;3.75;;
74658;SDS011;63186;51.204;6.536;2023-02-28T15:49:40;6.10;;;3.33;;
74658;SDS011;63186;51.204;6.536;2023-02-28T15:52:13;6.72;;;3.55;;
74658;SDS011;63186;51.204;6.536;2023-02-28T15:54:41;6.13;;;3.03;;
74658;SDS011;63186;51.204;6.536;2023-02-28T15:57:10;8.25;;;3.35;;
74658;SDS011;63186;51.204;6.536;2023-02-28T15:59:42;5.72;;;3.08;;
74658;SDS011;63186;51.204;6.536;2023-02-28T16:02:16;7.65;;;3.30;;
74658;SDS011;63186;51.204;6.536;2023-02-28T16:07:35;5.63;;;3.08;;
74658;SDS011;63186;51.204;6.536;2023-02-28T16:10:02;6.82;;;3.63;;
74658;SDS011;63186;51.204;6.536;2023-02-28T16:12:29;6.85;;;3.97;;
74658;SDS011;63186;51.204;6.536;2023-02-28T16:14:57;7.47;;;4.13;;
74658;SDS011;63186;51.204;6.536;2023-02-28T16:17:27;6.75;;;4.30;;
74658;SDS011;63186;51.204;6.536;2023-02-28T16:19:55;5.78;;;3.42;;
74658;SDS011;63186;51.204;6.536;2023-02-28T16:22:21;7.90;;;4.25;;
74658;SDS011;63186;51.204;6.536;2023-02-28T16:24:46;10.10;;;4.05;;
74658;SDS011;63186;51.204;6.536;2023-02-28T16:27:20;7.80;;;4.40;;
74658;SDS011;63186;51.204;6.536;2023-02-28T16:29:51;7.32;;;4.05;;
74658;SDS011;63186;51.204;6.536;2023-02-28T16:32:18;9.57;;;4.22;;
74658;SDS011;63186;51.204;6.536;2023-02-28T16:34:43;6.33;;;3.53;;
74658;SDS011;63186;51.204;6.536;2023-02-28T16:37:11;7.95;;;4.38;;
74658;SDS011;63186;51.204;6.536;2023-02-28T16:39:41;6.10;;;4.20;;
74658;SDS011;63186;51.204;6.536;2023-02-28T16:42:10;7.80;;;4.95;;
74658;SDS011;63186;51.204;6.536;2023-02-28T16:44:40;7.18;;;4.15;;
74658;SDS011;63186;51.204;6.536;2023-02-28T16:47:05;6.68;;;3.58;;
74658;SDS011;63186;51.204;6.536;2023-02-28T16:49:31;8.47;;;4.50;;
74658;SDS011;63186;51.204;6.536;2023-02-28T16:51:56;8.02;;;4.40;;
74658;SDS011;63186;51.204;6.536;2023-02-28T16:54:21;6.75;;;4.10;;
74658;SDS011;63186;51.204;6.536;2023-02-28T16:56:47;7.40;;;4.53;;
74658;SDS011;63186;51.204;6.536;2023-02-28T16:59:15;7.22;;;4.63;;
74658;SDS011;63186;51.204;6.536;2023-02-28T17:01:44;7.50;;;4.78;;
74658;SDS011;63186;51.204;6.536;2023-02-28T17:04:13;6.50;;;4.15;;
74658;SDS011;63186;51.204;6.536;2023-02-28T17:06:39;6.63;;;3.85;;
74658;SDS011;63186;51.204;6.536;2023-02-28T17:09:04;7.72;;;3.95;;
74658;SDS011;63186;51.204;6.536;2023-02-28T17:13:58;6.80;;;4.07;;
74658;SDS011;63186;51.204;6.536;2023-02-28T17:16:28;9.77;;;5.47;;
74658;SDS011;63186;51.204;6.536;2023-02-28T17:18:57;7.65;;;5.13;;
74658;SDS011;63186;51.204;6.536;2023-02-28T17:21:24;7.78;;;4.05;;
74658;SDS011;63186;51.204;6.536;2023-02-28T17:23:49;6.90;;;3.83;;
74658;SDS011;63186;51.204;6.536;2023-02-28T17:26:16;7.28;;;4.65;;
74658;SDS011;63186;51.204;6.536;2023-02-28T17:28:45;8.85;;;6.05;;
74658;SDS011;63186;51.204;6.536;2023-02-28T17:31:11;8.05;;;5.25;;
74658;SDS011;63186;51.204;6.536;2023-02-28T17:33:37;7.57;;;4.85;;
74658;SDS011;63186;51.204;6.536;2023-02-28T17:36:02;8.93;;;4.68;;
74658;SDS011;63186;51.204;6.536;2023-02-28T17:38:28;8.00;;;4.55;;
74658;SDS011;63186;51.204;6.536;2023-02-28T17:40:54;7.35;;;4.82;;
74658;SDS011;63186;51.204;6.536;2023-02-28T17:43:22;7.80;;;4.28;;
74658;SDS011;63186;51.204;6.536;2023-02-28T17:45:51;7.07;;;4.78;;